createdAt,value
2023-02-12T00:00:34.590Z,11.60
2023-02-12T00:03:20.348Z,11.60
2023-02-12T00:06:06.553Z,11.50
2023-02-12T00:08:52.911Z,11.50
2023-02-12T00:11:38.245Z,11.60
2023-02-12T00:14:23.769Z,11.40
2023-02-12T00:17:09.352Z,11.40
2023-02-12T00:19:54.907Z,11.40
2023-02-12T00:22:40.586Z,11.40
2023-02-12T00:25:26.138Z,11.40
2023-02-12T00:28:11.704Z,11.50
2023-02-12T00:30:57.523Z,11.50
2023-02-12T00:33:45.501Z,11.50
2023-02-12T00:36:32.548Z,11.40
2023-02-12T00:39:18.346Z,11.40
2023-02-12T00:42:04.366Z,11.30
2023-02-12T00:44:50.002Z,11.30
2023-02-12T00:47:35.594Z,11.30
2023-02-12T00:50:21.214Z,11.30
2023-02-12T00:53:07.942Z,11.30
2023-02-12T00:55:53.935Z,11.30
2023-02-12T00:58:40.238Z,11.30
2023-02-12T01:01:25.948Z,11.30
2023-02-12T01:04:11.466Z,11.30
2023-02-12T01:06:56.895Z,11.40
2023-02-12T01:09:42.598Z,11.30
2023-02-12T01:12:27.862Z,11.30
2023-02-12T01:15:13.902Z,11.30
2023-02-12T01:17:59.385Z,11.20
2023-02-12T01:20:44.984Z,11.30
2023-02-12T01:23:30.442Z,11.30
2023-02-12T01:26:16.878Z,11.30
2023-02-12T01:29:04.379Z,11.30
2023-02-12T01:31:50.601Z,11.30
2023-02-12T01:34:36.233Z,11.30
2023-02-12T01:37:21.743Z,11.30
2023-02-12T01:40:08.316Z,11.20
2023-02-12T01:42:53.953Z,11.10
2023-02-12T01:45:42.625Z,11.00
2023-02-12T01:48:29.463Z,11.00
2023-02-12T01:51:16.966Z,11.00
2023-02-12T01:54:06.110Z,11.00
2023-02-12T01:56:51.897Z,11.00
2023-02-12T01:59:37.917Z,10.90
2023-02-12T02:02:23.472Z,10.90
2023-02-12T02:05:08.899Z,10.90
2023-02-12T02:07:54.641Z,10.90
2023-02-12T02:10:40.216Z,11.00
2023-02-12T02:13:44.545Z,11.10
2023-02-12T02:16:30.887Z,11.10
2023-02-12T02:19:19.617Z,11.10
2023-02-12T02:22:12.385Z,11.10
2023-02-12T02:25:13.357Z,11.00
2023-02-12T02:28:08.213Z,11.10
2023-02-12T02:31:12.642Z,11.20
2023-02-12T02:33:57.977Z,11.20
2023-02-12T02:37:00.207Z,11.30
2023-02-12T02:39:55.289Z,11.20
2023-02-12T02:42:59.414Z,11.10
2023-02-12T02:45:52.609Z,11.20
2023-02-12T02:48:43.965Z,11.10
2023-02-12T02:51:31.823Z,11.10
2023-02-12T02:54:21.464Z,11.10
2023-02-12T02:57:14.197Z,11.10
2023-02-12T03:00:04.072Z,11.10
2023-02-12T03:02:56.549Z,11.10
2023-02-12T03:05:47.615Z,11.20
2023-02-12T03:08:38.790Z,11.70
2023-02-12T03:11:26.678Z,12.00
2023-02-12T03:14:31.153Z,12.30
2023-02-12T03:17:18.355Z,12.60
2023-02-12T03:20:26.982Z,12.90
2023-02-12T03:23:35.839Z,13.10
2023-02-12T03:26:35.014Z,13.30
2023-02-12T03:29:20.571Z,13.40
2023-02-12T03:32:29.833Z,13.50
2023-02-12T03:35:17.990Z,13.60
2023-02-12T03:38:15.858Z,13.70
2023-02-12T03:41:04.281Z,13.80
2023-02-12T03:43:59.620Z,13.80
2023-02-12T03:46:58.066Z,13.90
2023-02-12T03:49:55.945Z,13.90
2023-02-12T03:52:42.062Z,14.00
2023-02-12T03:55:27.381Z,14.00
2023-02-12T03:58:15.545Z,14.10
2023-02-12T04:01:02.349Z,14.10
2023-02-12T04:03:47.880Z,14.10
2023-02-12T04:06:33.767Z,14.10
2023-02-12T04:09:20.116Z,14.20
2023-02-12T04:12:05.561Z,14.20
2023-02-12T04:15:06.549Z,14.20
2023-02-12T04:17:55.421Z,14.30
2023-02-12T04:21:04.131Z,14.30
2023-02-12T04:24:13.267Z,14.30
2023-02-12T04:27:28.401Z,14.30
2023-02-12T04:30:18.988Z,14.30
2023-02-12T04:33:05.860Z,14.40
2023-02-12T04:35:55.300Z,14.40
2023-02-12T04:38:44.192Z,14.40
2023-02-12T04:41:31.021Z,14.50
2023-02-12T04:44:22.808Z,14.50
2023-02-12T04:47:08.655Z,14.50
2023-02-12T04:49:54.130Z,14.50
2023-02-12T04:52:39.868Z,14.50
2023-02-12T04:55:25.317Z,14.60
2023-02-12T04:58:11.082Z,14.60
2023-02-12T05:00:58.904Z,14.60
2023-02-12T05:03:44.383Z,14.60
2023-02-12T05:06:32.989Z,14.60
2023-02-12T05:09:19.870Z,14.60
2023-02-12T05:12:05.113Z,14.60
2023-02-12T05:14:50.864Z,14.60
2023-02-12T05:17:36.525Z,14.70
2023-02-12T05:20:22.211Z,14.70
2023-02-12T05:23:07.960Z,14.70
2023-02-12T05:25:53.985Z,14.70
2023-02-12T05:28:39.672Z,14.70
2023-02-12T05:31:25.548Z,14.70
2023-02-12T05:34:11.933Z,14.80
2023-02-12T05:36:57.321Z,14.80
2023-02-12T05:39:42.893Z,14.80
2023-02-12T05:42:29.414Z,14.80
2023-02-12T05:45:15.193Z,14.80
2023-02-12T05:48:00.883Z,14.80
2023-02-12T05:50:46.533Z,14.80
2023-02-12T05:53:32.458Z,14.80
2023-02-12T05:56:19.279Z,14.80
2023-02-12T05:59:12.475Z,14.90
2023-02-12T06:01:58.299Z,14.90
2023-02-12T06:04:43.860Z,14.80
2023-02-12T06:07:29.531Z,14.90
2023-02-12T06:10:15.298Z,14.80
2023-02-12T06:13:00.721Z,14.90
2023-02-12T06:15:46.591Z,14.90
2023-02-12T06:18:34.793Z,14.90
2023-02-12T06:21:20.798Z,14.90
2023-02-12T06:24:06.206Z,14.90
2023-02-12T06:26:52.422Z,15.00
2023-02-12T06:29:37.840Z,15.00
2023-02-12T06:32:23.658Z,15.00
2023-02-12T06:35:08.966Z,15.00
2023-02-12T06:37:54.642Z,15.00
2023-02-12T06:40:40.517Z,15.00
2023-02-12T06:43:25.920Z,15.00
2023-02-12T06:46:11.829Z,15.00
2023-02-12T06:48:58.530Z,14.90
2023-02-12T06:51:44.163Z,15.00
2023-02-12T06:54:29.887Z,15.00
2023-02-12T06:57:15.550Z,15.00
2023-02-12T07:00:01.313Z,15.00
2023-02-12T07:02:52.015Z,15.10
2023-02-12T07:05:39.797Z,15.10
2023-02-12T07:08:25.641Z,15.00
2023-02-12T07:11:11.602Z,15.10
2023-02-12T07:13:57.433Z,15.00
2023-02-12T07:16:42.858Z,15.00
2023-02-12T07:19:28.210Z,15.10
2023-02-12T07:22:13.730Z,15.10
2023-02-12T07:24:59.312Z,12.60
2023-02-12T07:27:44.947Z,15.10
2023-02-12T07:30:30.918Z,15.10
2023-02-12T07:33:16.675Z,15.10
2023-02-12T07:36:02.235Z,15.10
2023-02-12T07:38:47.764Z,15.10
2023-02-12T07:41:34.789Z,15.10
2023-02-12T07:44:20.212Z,15.10
2023-02-12T07:47:06.267Z,15.10
2023-02-12T07:49:51.837Z,15.10
2023-02-12T07:52:37.557Z,15.10
2023-02-12T07:55:23.195Z,15.20
2023-02-12T07:58:08.870Z,15.20
2023-02-12T08:00:54.529Z,15.20
2023-02-12T08:03:40.213Z,15.20
2023-02-12T08:06:26.816Z,15.20
2023-02-12T08:09:13.813Z,15.20
2023-02-12T08:11:59.533Z,15.30
2023-02-12T08:14:45.303Z,15.30
2023-02-12T08:17:30.688Z,15.30
2023-02-12T08:20:16.027Z,15.30
2023-02-12T08:23:01.755Z,15.30
2023-02-12T08:25:47.375Z,15.30
2023-02-12T08:28:33.116Z,15.50
2023-02-12T08:31:20.358Z,15.50
2023-02-12T08:34:06.155Z,15.60
2023-02-12T08:36:54.033Z,15.70
2023-02-12T08:39:39.617Z,15.80
2023-02-12T08:42:25.793Z,15.80
2023-02-12T08:45:11.362Z,15.80
2023-02-12T08:47:56.965Z,15.90
2023-02-12T08:50:42.734Z,15.90
2023-02-12T08:53:28.016Z,16.00
2023-02-12T08:56:14.751Z,16.00
2023-02-12T08:59:01.424Z,16.10
2023-02-12T09:01:49.735Z,16.20
2023-02-12T09:04:36.015Z,16.20
2023-02-12T09:07:21.777Z,16.20
2023-02-12T09:10:07.695Z,16.30
2023-02-12T09:12:53.416Z,16.30
2023-02-12T09:15:39.652Z,16.30
2023-02-12T09:18:25.045Z,16.30
2023-02-12T09:21:12.179Z,16.30
2023-02-12T09:23:57.985Z,16.40
2023-02-12T09:26:43.703Z,16.40
2023-02-12T09:29:29.342Z,16.50
2023-02-12T09:32:14.864Z,16.50
2023-02-12T09:35:00.572Z,16.50
2023-02-12T09:37:48.258Z,16.50
2023-02-12T09:40:33.565Z,16.50
2023-02-12T09:43:38.059Z,16.50
2023-02-12T09:46:31.449Z,16.50
2023-02-12T09:49:23.117Z,16.40
2023-02-12T09:52:17.313Z,16.40
2023-02-12T09:55:03.110Z,16.40
2023-02-12T09:57:48.706Z,16.40
2023-02-12T10:00:34.172Z,16.30
2023-02-12T10:03:19.898Z,16.40
2023-02-12T10:06:07.714Z,16.40
2023-02-12T10:08:53.114Z,16.40
2023-02-12T10:11:41.845Z,16.40
2023-02-12T10:14:27.534Z,16.40
2023-02-12T10:17:27.212Z,16.40
2023-02-12T10:20:12.542Z,16.40
2023-02-12T10:23:16.473Z,16.40
2023-02-12T10:26:13.488Z,16.40
2023-02-12T10:29:09.576Z,16.30
2023-02-12T10:34:44.221Z,16.30
2023-02-12T10:37:32.387Z,16.40
2023-02-12T10:40:20.627Z,16.40
2023-02-12T10:43:06.790Z,16.50
2023-02-12T10:45:52.629Z,16.50
2023-02-12T10:48:40.224Z,16.50
2023-02-12T10:51:34.135Z,16.60
2023-02-12T10:54:40.226Z,16.70
2023-02-12T10:57:31.792Z,16.80
2023-02-12T11:00:26.552Z,16.80
2023-02-12T11:03:12.304Z,16.90
2023-02-12T11:06:11.534Z,16.80
2023-02-12T11:08:58.041Z,16.80
2023-02-12T11:11:43.287Z,16.80
2023-02-12T11:14:29.313Z,16.80
2023-02-12T11:17:23.305Z,16.90
2023-02-12T11:20:10.217Z,16.80
2023-02-12T11:22:57.364Z,16.90
2023-02-12T11:25:54.725Z,16.90
2023-02-12T11:28:52.377Z,16.90
2023-02-12T11:31:37.809Z,16.90
2023-02-12T11:34:23.221Z,16.90
2023-02-12T11:37:16.094Z,17.00
2023-02-12T11:40:01.758Z,17.00
2023-02-12T11:42:49.237Z,17.00
2023-02-12T11:45:41.505Z,17.00
2023-02-12T11:48:34.766Z,17.10
2023-02-12T11:51:22.585Z,17.10
2023-02-12T11:54:17.242Z,17.10
2023-02-12T11:57:02.782Z,17.20
2023-02-12T11:59:48.854Z,17.20
2023-02-12T12:02:38.279Z,17.30
2023-02-12T12:05:25.979Z,17.30
2023-02-12T12:08:21.477Z,17.30
2023-02-12T12:11:10.948Z,17.30
2023-02-12T12:13:56.382Z,17.30
2023-02-12T12:17:10.567Z,17.30
2023-02-12T12:19:59.037Z,17.30
2023-02-12T12:22:44.678Z,17.30
2023-02-12T12:25:49.221Z,17.40
2023-02-12T12:28:53.676Z,17.40
2023-02-12T12:31:42.159Z,17.40
2023-02-12T12:34:28.325Z,17.50
2023-02-12T12:37:37.627Z,17.60
2023-02-12T12:40:32.204Z,17.70
2023-02-12T12:43:39.525Z,17.70
2023-02-12T12:46:28.326Z,17.80
2023-02-12T12:49:23.229Z,17.90
2023-02-12T12:52:18.278Z,17.90
2023-02-12T12:55:17.867Z,18.00
2023-02-12T12:58:09.529Z,18.00
2023-02-12T13:01:05.170Z,18.00
2023-02-12T13:03:53.677Z,18.10
2023-02-12T13:06:45.409Z,18.10
2023-02-12T13:09:34.233Z,18.10
2023-02-12T13:12:19.960Z,18.10
2023-02-12T13:15:17.878Z,18.20
2023-02-12T13:18:06.775Z,18.20
2023-02-12T13:21:06.114Z,18.10
2023-02-12T13:23:57.285Z,18.10
2023-02-12T13:26:52.858Z,18.10
2023-02-12T13:29:38.533Z,18.00
2023-02-12T13:32:27.119Z,18.10
2023-02-12T13:35:20.997Z,18.00
2023-02-12T13:38:08.756Z,18.00
2023-02-12T13:40:56.695Z,17.90
2023-02-12T13:43:59.904Z,17.80
2023-02-12T13:46:48.724Z,17.70
2023-02-12T13:49:40.442Z,17.60
2023-02-12T13:52:36.150Z,17.60
2023-02-12T13:55:32.242Z,17.50
2023-02-12T13:58:37.486Z,17.40
2023-02-12T14:01:41.820Z,17.40
2023-02-12T14:04:27.725Z,17.30
2023-02-12T14:07:16.427Z,17.30
2023-02-12T14:10:03.884Z,17.30
2023-02-12T14:12:49.621Z,17.40
2023-02-12T14:15:36.486Z,17.50
2023-02-12T14:18:25.151Z,17.60
2023-02-12T14:21:13.838Z,17.60
2023-02-12T14:24:19.424Z,17.70
2023-02-12T14:27:19.444Z,17.70
2023-02-12T14:30:11.107Z,17.80
2023-02-12T14:32:58.267Z,17.80
2023-02-12T14:35:45.330Z,17.80
2023-02-12T14:38:36.880Z,17.90
2023-02-12T14:41:37.976Z,17.90
2023-02-12T14:44:23.445Z,17.90
2023-02-12T14:47:14.425Z,17.90
2023-02-12T14:50:02.709Z,17.90
2023-02-12T14:52:51.773Z,17.90
2023-02-12T14:55:37.163Z,17.90
2023-02-12T14:58:24.621Z,18.00
2023-02-12T15:01:10.316Z,18.00
2023-02-12T15:03:57.866Z,18.00
2023-02-12T15:06:48.915Z,18.00
2023-02-12T15:09:47.465Z,18.00
2023-02-12T15:12:51.695Z,18.00
2023-02-12T15:15:43.923Z,18.00
2023-02-12T15:18:33.169Z,17.90
2023-02-12T15:21:29.247Z,17.90
2023-02-12T15:24:23.430Z,17.90
2023-02-12T15:27:12.523Z,17.80
2023-02-12T15:29:58.181Z,17.90
2023-02-12T15:32:46.648Z,17.90
2023-02-12T15:35:33.666Z,17.90
2023-02-12T15:38:21.971Z,17.90
2023-02-12T15:41:09.169Z,17.90
2023-02-12T15:43:55.710Z,17.90
2023-02-12T15:46:52.984Z,18.00
2023-02-12T15:49:39.273Z,17.90
2023-02-12T15:52:34.624Z,18.00
2023-02-12T15:55:23.647Z,18.00
2023-02-12T15:58:20.439Z,18.00
2023-02-12T16:01:06.660Z,18.00
2023-02-12T16:03:54.084Z,18.10
2023-02-12T16:06:39.710Z,18.10
2023-02-12T16:09:32.595Z,18.10
2023-02-12T16:12:20.939Z,18.00
2023-02-12T16:15:06.611Z,18.00
2023-02-12T16:17:52.383Z,18.10
2023-02-12T16:20:39.080Z,18.10
2023-02-12T16:23:25.671Z,18.10
2023-02-12T16:26:25.362Z,18.00
2023-02-12T16:29:15.943Z,18.00
2023-02-12T16:32:02.793Z,18.00
2023-02-12T16:34:58.167Z,18.00
2023-02-12T16:37:48.523Z,18.00
2023-02-12T16:40:35.291Z,17.90
2023-02-12T16:43:26.236Z,17.90
2023-02-12T16:46:12.981Z,17.90
2023-02-12T16:49:00.691Z,17.90
2023-02-12T16:51:46.553Z,17.90
2023-02-12T16:54:35.527Z,17.80
2023-02-12T16:57:21.094Z,17.80
2023-02-12T17:00:08.332Z,17.80
2023-02-12T17:02:55.318Z,17.80
2023-02-12T17:05:43.171Z,17.80
2023-02-12T17:08:29.029Z,17.90
2023-02-12T17:11:17.519Z,17.90
2023-02-12T17:14:03.058Z,17.90
2023-02-12T17:16:48.679Z,17.90
2023-02-12T17:19:34.302Z,18.00
2023-02-12T17:22:22.437Z,18.00
2023-02-12T17:25:08.043Z,18.00
2023-02-12T17:27:53.737Z,18.00
2023-02-12T17:30:39.392Z,18.00
2023-02-12T17:33:25.160Z,18.00
2023-02-12T17:36:11.030Z,18.00
2023-02-12T17:38:56.650Z,18.00
2023-02-12T17:41:44.154Z,18.00
2023-02-12T17:44:29.768Z,17.90
2023-02-12T17:47:15.412Z,17.90
2023-02-12T17:50:02.566Z,17.90
2023-02-12T17:52:48.349Z,17.90
2023-02-12T17:55:34.183Z,17.80
2023-02-12T17:58:19.632Z,17.80
2023-02-12T18:01:06.597Z,17.90
2023-02-12T18:03:54.541Z,17.90
2023-02-12T18:06:40.804Z,17.90
2023-02-12T18:09:26.333Z,17.90
2023-02-12T18:12:12.206Z,17.90
2023-02-12T18:14:58.884Z,17.80
2023-02-12T18:17:44.604Z,17.90
2023-02-12T18:20:30.440Z,17.90
2023-02-12T18:23:15.886Z,16.70
2023-02-12T18:26:04.638Z,17.90
2023-02-12T18:28:50.119Z,17.90
2023-02-12T18:31:36.424Z,17.90
2023-02-12T18:34:22.180Z,17.90
2023-02-12T18:37:08.378Z,18.00
2023-02-12T18:39:54.152Z,17.90
2023-02-12T18:42:40.032Z,18.00
2023-02-12T18:45:25.703Z,18.00
2023-02-12T18:48:12.146Z,18.00
2023-02-12T18:51:00.290Z,18.00
2023-02-12T18:53:46.369Z,17.90
2023-02-12T18:56:35.898Z,18.00
2023-02-12T18:59:21.889Z,18.00
2023-02-12T19:02:07.953Z,18.00
2023-02-12T19:04:53.843Z,18.00
2023-02-12T19:07:41.081Z,18.00
2023-02-12T19:10:26.945Z,18.00
2023-02-12T19:13:12.158Z,18.00
2023-02-12T19:15:57.862Z,17.90
2023-02-12T19:18:43.649Z,17.90
2023-02-12T19:21:29.183Z,17.70
2023-02-12T19:24:15.147Z,17.60
2023-02-12T19:27:00.705Z,17.40
2023-02-12T19:29:46.450Z,17.40
2023-02-12T19:32:32.124Z,17.30
2023-02-12T19:35:17.791Z,17.20
2023-02-12T19:38:03.537Z,17.20
2023-02-12T19:40:49.219Z,17.10
2023-02-12T19:43:35.158Z,17.00
2023-02-12T19:46:20.886Z,17.00
2023-02-12T19:49:06.861Z,17.00
2023-02-12T19:51:52.423Z,16.90
2023-02-12T19:54:38.198Z,16.90
2023-02-12T19:57:23.762Z,16.90
2023-02-12T20:00:09.737Z,16.80
2023-02-12T20:02:55.354Z,16.90
2023-02-12T20:05:52.045Z,16.90
2023-02-12T20:08:38.568Z,16.90
2023-02-12T20:11:25.383Z,16.90
2023-02-12T20:14:12.690Z,16.90
2023-02-12T20:17:01.310Z,16.80
2023-02-12T20:19:47.037Z,16.80
2023-02-12T20:22:32.785Z,16.90
2023-02-12T20:25:18.385Z,16.80
2023-02-12T20:28:04.014Z,16.80
2023-02-12T20:30:49.641Z,16.90
2023-02-12T20:33:35.210Z,16.90
2023-02-12T20:36:21.208Z,16.90
2023-02-12T20:39:07.598Z,16.90
2023-02-12T20:41:53.239Z,16.90
2023-02-12T20:44:38.654Z,16.90
2023-02-12T20:47:28.803Z,16.90
2023-02-12T20:50:14.816Z,16.90
2023-02-12T20:53:00.593Z,16.90
2023-02-12T20:55:46.106Z,16.90
2023-02-12T20:58:32.023Z,16.90
2023-02-12T21:01:17.384Z,16.90
2023-02-12T21:04:07.147Z,16.90
2023-02-12T21:06:52.482Z,16.90
2023-02-12T21:09:38.202Z,16.90
2023-02-12T21:12:24.230Z,16.90
2023-02-12T21:15:10.082Z,16.90
2023-02-12T21:17:55.741Z,16.80
2023-02-12T21:20:41.591Z,16.90
2023-02-12T21:23:27.240Z,16.90
2023-02-12T21:26:17.284Z,16.90
2023-02-12T21:29:03.543Z,16.80
2023-02-12T21:31:50.225Z,16.90
2023-02-12T21:34:36.035Z,16.80
2023-02-12T21:37:21.775Z,16.00
2023-02-12T21:40:07.784Z,15.40
2023-02-12T21:42:53.304Z,15.00
2023-02-12T21:45:39.270Z,14.70
2023-02-12T21:48:24.591Z,14.40
2023-02-12T21:51:17.921Z,14.30
2023-02-12T21:54:04.909Z,13.90
2023-02-12T21:56:50.705Z,13.80
2023-02-12T21:59:36.097Z,13.70
2023-02-12T22:02:21.965Z,13.70
2023-02-12T22:05:07.748Z,13.60
2023-02-12T22:07:53.322Z,13.40
2023-02-12T22:10:38.932Z,13.40
2023-02-12T22:13:24.478Z,13.40
2023-02-12T22:16:11.332Z,13.30
2023-02-12T22:18:59.242Z,13.30
2023-02-12T22:21:44.896Z,13.40
2023-02-12T22:24:30.260Z,13.30
2023-02-12T22:27:15.942Z,13.10
2023-02-12T22:30:01.905Z,13.00
2023-02-12T22:32:47.374Z,13.10
2023-02-12T22:35:32.922Z,13.00
2023-02-12T22:38:18.735Z,13.00
2023-02-12T22:41:05.420Z,13.10
2023-02-12T22:43:51.179Z,12.90
2023-02-12T22:46:36.634Z,12.90
2023-02-12T22:49:22.398Z,12.90
2023-02-12T22:52:08.065Z,12.90
2023-02-12T22:54:54.007Z,13.00
2023-02-12T22:57:39.951Z,12.90
2023-02-12T23:00:25.531Z,12.90
2023-02-12T23:03:11.422Z,12.90
2023-02-12T23:05:57.063Z,12.80
2023-02-12T23:08:43.250Z,12.70
2023-02-12T23:11:29.339Z,12.60
2023-02-12T23:14:14.769Z,12.60
2023-02-12T23:17:00.635Z,12.50
2023-02-12T23:19:46.005Z,12.60
2023-02-12T23:22:31.884Z,12.50
2023-02-12T23:25:17.524Z,12.50
2023-02-12T23:28:03.267Z,12.60
2023-02-12T23:30:49.319Z,12.40
2023-02-12T23:33:34.798Z,12.40
2023-02-12T23:36:20.641Z,12.40
2023-02-12T23:39:06.302Z,12.40
2023-02-12T23:41:51.854Z,12.50
2023-02-12T23:44:38.846Z,12.40
2023-02-12T23:47:24.195Z,12.50
2023-02-12T23:50:09.971Z,12.40
2023-02-12T23:52:55.274Z,12.30
2023-02-12T23:55:40.881Z,12.30
2023-02-12T23:58:26.584Z,12.20
